createdAt,value
2023-01-01T00:01:26.251Z,99204.97
2023-01-01T00:03:56.947Z,99215.16
2023-01-01T00:06:23.867Z,99214.19
2023-01-01T00:09:10.672Z,99214.06
2023-01-01T00:11:37.271Z,99207.66
2023-01-01T00:14:10.077Z,99211.09
2023-01-01T00:16:38.844Z,99205.41
2023-01-01T00:19:05.426Z,99206.06
2023-01-01T00:21:31.871Z,99217.09
2023-01-01T00:23:58.371Z,99218.91
2023-01-01T00:26:28.169Z,99207.78
2023-01-01T00:28:57.506Z,99218.63
2023-01-01T00:31:24.043Z,99211.88
2023-01-01T00:33:53.160Z,99210.78
2023-01-01T00:36:20.169Z,99220.91
2023-01-01T00:38:46.631Z,99217.63
2023-01-01T00:41:14.102Z,99216.84
2023-01-01T00:43:40.927Z,99213.41
2023-01-01T00:46:08.049Z,99222.19
2023-01-01T00:48:34.961Z,99225.97
2023-01-01T00:51:01.887Z,99231.81
2023-01-01T00:53:28.322Z,99231.41
2023-01-01T00:55:56.535Z,99233.00
2023-01-01T00:58:24.394Z,99237.91
2023-01-01T01:00:51.574Z,99240.19
2023-01-01T01:03:30.744Z,99244.28
2023-01-01T01:06:09.911Z,99240.78
2023-01-01T01:08:37.457Z,99248.25
2023-01-01T01:11:14.402Z,99240.25
2023-01-01T01:13:41.350Z,99247.19
2023-01-01T01:16:11.807Z,99256.19
2023-01-01T01:18:38.376Z,99257.28
2023-01-01T01:21:05.149Z,99257.69
2023-01-01T01:23:31.900Z,99255.31
2023-01-01T01:26:10.214Z,99260.84
2023-01-01T01:28:36.786Z,99258.75
2023-01-01T01:31:04.375Z,99258.56
2023-01-01T01:33:31.019Z,99250.31
2023-01-01T01:35:57.488Z,99252.69
2023-01-01T01:38:24.168Z,99267.75
2023-01-01T01:40:50.709Z,99271.09
2023-01-01T01:43:21.188Z,99275.31
2023-01-01T01:45:48.212Z,99276.69
2023-01-01T01:48:15.030Z,99277.34
2023-01-01T01:50:42.318Z,99273.56
2023-01-01T01:53:19.238Z,99268.47
2023-01-01T01:55:48.534Z,99269.28
2023-01-01T01:58:16.106Z,99266.50
2023-01-01T02:00:42.738Z,99275.72
2023-01-01T02:03:11.387Z,99275.84
2023-01-01T02:05:39.973Z,99280.09
2023-01-01T02:08:07.477Z,99266.41
2023-01-01T02:10:34.205Z,99270.00
2023-01-01T02:13:01.172Z,99271.94
2023-01-01T02:15:34.959Z,99269.34
2023-01-01T02:18:10.795Z,99265.06
2023-01-01T02:20:49.238Z,99266.56
2023-01-01T02:23:34.357Z,99273.72
2023-01-01T02:26:19.687Z,99267.09
2023-01-01T02:28:55.337Z,99267.22
2023-01-01T02:31:24.745Z,99273.44
2023-01-01T02:33:53.628Z,99278.19
2023-01-01T02:36:21.301Z,99269.81
2023-01-01T02:38:50.499Z,99265.59
2023-01-01T02:41:39.431Z,99267.53
2023-01-01T02:46:35.818Z,99273.50
2023-01-01T02:49:09.618Z,99276.41
2023-01-01T02:51:36.898Z,99265.59
2023-01-01T02:54:03.341Z,99266.66
2023-01-01T02:56:32.786Z,99262.78
2023-01-01T02:59:17.847Z,99267.41
2023-01-01T03:01:49.660Z,99275.38
2023-01-01T03:04:36.252Z,99269.72
2023-01-01T03:07:20.790Z,99276.19
2023-01-01T03:09:53.655Z,99268.78
2023-01-01T03:12:39.942Z,99270.09
2023-01-01T03:15:11.324Z,99277.41
2023-01-01T03:17:50.436Z,99275.59
2023-01-01T03:20:24.602Z,99284.78
2023-01-01T03:22:53.227Z,99270.94
2023-01-01T03:25:24.801Z,99269.44
2023-01-01T03:28:00.294Z,99271.50
2023-01-01T03:30:28.854Z,99268.06
2023-01-01T03:33:01.381Z,99262.97
2023-01-01T03:35:35.348Z,99263.38
2023-01-01T03:38:03.445Z,99254.94
2023-01-01T03:40:31.464Z,99272.16
2023-01-01T03:43:03.508Z,99265.47
2023-01-01T03:45:31.563Z,99263.22
2023-01-01T03:47:58.298Z,99264.28
2023-01-01T03:50:30.184Z,99266.91
2023-01-01T03:53:14.361Z,99264.75
2023-01-01T03:55:45.515Z,99284.31
2023-01-01T03:58:21.185Z,99278.91
2023-01-01T04:00:51.379Z,99288.63
2023-01-01T04:03:23.980Z,99281.41
2023-01-01T04:05:50.754Z,99264.25
2023-01-01T04:08:17.301Z,99277.53
2023-01-01T04:10:45.964Z,99272.91
2023-01-01T04:13:12.401Z,99273.50
2023-01-01T04:15:39.074Z,99272.72
2023-01-01T04:18:05.792Z,99280.22
2023-01-01T04:20:32.145Z,99283.34
2023-01-01T04:22:59.876Z,99273.09
2023-01-01T04:25:26.752Z,99278.81
2023-01-01T04:27:53.209Z,99280.19
2023-01-01T04:30:19.721Z,99281.72
2023-01-01T04:32:46.373Z,99289.53
2023-01-01T04:35:13.814Z,99281.72
2023-01-01T04:37:41.147Z,99286.09
2023-01-01T04:40:08.418Z,99295.34
2023-01-01T04:42:35.263Z,99287.59
2023-01-01T04:45:01.761Z,99285.28
2023-01-01T04:47:28.197Z,99294.06
2023-01-01T04:49:54.924Z,99287.00
2023-01-01T04:52:21.677Z,99286.81
2023-01-01T04:54:48.154Z,99281.41
2023-01-01T04:57:14.606Z,99285.38
2023-01-01T04:59:41.585Z,99288.19
2023-01-01T05:02:08.192Z,99295.41
2023-01-01T05:04:34.721Z,99283.63
2023-01-01T05:07:01.123Z,99285.94
2023-01-01T05:09:27.607Z,99290.66
2023-01-01T05:11:54.544Z,99290.09
2023-01-01T05:14:20.984Z,99291.25
2023-01-01T05:16:47.410Z,99285.28
2023-01-01T05:19:14.090Z,99296.09
2023-01-01T05:21:40.743Z,99281.41
2023-01-01T05:24:08.954Z,99287.69
2023-01-01T05:26:37.029Z,99289.72
2023-01-01T05:29:04.061Z,99293.88
2023-01-01T05:31:32.850Z,99288.47
2023-01-01T05:36:29.166Z,99300.13
2023-01-01T05:38:55.705Z,99301.31
2023-01-01T05:41:22.387Z,99304.19
2023-01-01T05:43:49.247Z,99305.81
2023-01-01T05:46:33.964Z,99316.56
2023-01-01T05:49:00.680Z,99301.66
2023-01-01T05:51:28.018Z,99310.09
2023-01-01T05:53:55.446Z,99308.94
2023-01-01T05:56:22.008Z,99309.94
2023-01-01T05:58:48.526Z,99311.94
2023-01-01T06:01:15.189Z,99315.69
2023-01-01T06:03:42.282Z,99309.13
2023-01-01T06:06:13.038Z,99312.78
2023-01-01T06:08:39.719Z,99303.66
2023-01-01T06:11:07.184Z,99305.06
2023-01-01T06:13:33.662Z,99308.84
2023-01-01T06:16:00.837Z,99304.00
2023-01-01T06:18:30.063Z,99299.88
2023-01-01T06:21:04.405Z,99315.59
2023-01-01T06:23:30.915Z,99312.81
2023-01-01T06:25:57.313Z,99316.88
2023-01-01T06:28:23.704Z,99322.47
2023-01-01T06:30:50.139Z,99325.16
2023-01-01T06:33:16.561Z,99316.34
2023-01-01T06:35:42.913Z,99313.38
2023-01-01T06:38:09.312Z,99316.44
2023-01-01T06:40:35.683Z,99310.69
2023-01-01T06:43:02.034Z,99314.25
2023-01-01T06:45:28.364Z,99320.63
2023-01-01T06:47:54.698Z,99319.81
2023-01-01T06:50:21.037Z,99325.75
2023-01-01T06:52:47.896Z,99333.09
2023-01-01T06:55:14.228Z,99340.22
2023-01-01T06:57:40.571Z,99358.94
2023-01-01T07:00:07.440Z,99365.19
2023-01-01T07:02:34.180Z,99361.34
2023-01-01T07:05:00.660Z,99365.41
2023-01-01T07:07:31.113Z,99376.34
2023-01-01T07:10:00.471Z,99380.56
2023-01-01T07:12:26.813Z,99382.38
2023-01-01T07:14:53.250Z,99377.19
2023-01-01T07:17:19.638Z,99392.44
2023-01-01T07:19:45.979Z,99383.78
2023-01-01T07:22:12.429Z,99387.44
2023-01-01T07:24:40.076Z,99383.28
2023-01-01T07:27:06.537Z,99384.91
2023-01-01T07:29:33.508Z,99381.75
2023-01-01T07:31:59.885Z,99387.63
2023-01-01T07:34:26.239Z,99399.41
2023-01-01T07:36:52.635Z,99403.44
2023-01-01T07:39:18.967Z,99411.66
2023-01-01T07:41:45.860Z,99420.66
2023-01-01T07:44:12.245Z,99415.06
2023-01-01T07:46:38.753Z,99416.78
2023-01-01T07:49:05.331Z,99425.09
2023-01-01T07:51:31.680Z,99425.69
2023-01-01T07:54:03.948Z,99432.25
2023-01-01T07:56:33.564Z,99455.41
2023-01-01T07:59:00.052Z,99447.97
2023-01-01T08:01:26.426Z,99464.53
2023-01-01T08:03:53.007Z,99460.75
2023-01-01T08:06:19.758Z,99478.78
2023-01-01T08:08:46.122Z,99473.94
2023-01-01T08:11:12.483Z,99475.97
2023-01-01T08:13:39.007Z,99473.56
2023-01-01T08:16:05.532Z,99476.66
2023-01-01T08:18:32.078Z,99473.94
2023-01-01T08:20:58.598Z,99476.94
2023-01-01T08:23:25.054Z,99460.72
2023-01-01T08:25:51.415Z,99475.97
2023-01-01T08:28:17.786Z,99469.50
2023-01-01T08:30:44.189Z,99465.94
2023-01-01T08:33:10.554Z,99466.63
2023-01-01T08:35:38.082Z,99474.84
2023-01-01T08:38:04.423Z,99476.38
2023-01-01T08:40:30.815Z,99474.00
2023-01-01T08:42:57.237Z,99479.34
2023-01-01T08:45:23.583Z,99475.47
2023-01-01T08:47:49.938Z,99477.09
2023-01-01T08:50:16.286Z,99481.84
2023-01-01T08:52:42.631Z,99479.81
2023-01-01T08:55:09.279Z,99483.00
2023-01-01T08:57:35.611Z,99485.78
2023-01-01T09:00:01.951Z,99497.56
2023-01-01T09:02:29.787Z,99484.38
2023-01-01T09:04:56.299Z,99482.41
2023-01-01T09:07:22.637Z,99488.81
2023-01-01T09:09:48.953Z,99497.78
2023-01-01T09:12:16.431Z,99513.81
2023-01-01T09:14:42.892Z,99512.00
2023-01-01T09:17:09.231Z,99509.47
2023-01-01T09:19:35.620Z,99511.72
2023-01-01T09:22:01.982Z,99518.66
2023-01-01T09:24:28.323Z,99528.63
2023-01-01T09:26:54.689Z,99533.09
2023-01-01T09:29:21.828Z,99544.25
2023-01-01T09:31:48.875Z,99536.34
2023-01-01T09:34:15.323Z,99533.75
2023-01-01T09:36:41.884Z,99530.06
2023-01-01T09:39:10.122Z,99533.66
2023-01-01T09:41:55.388Z,99530.84
2023-01-01T09:44:30.151Z,99525.31
2023-01-01T09:46:59.608Z,99538.00
2023-01-01T09:49:25.912Z,99529.19
2023-01-01T09:51:58.143Z,99539.78
2023-01-01T09:54:43.308Z,99531.09
2023-01-01T09:57:19.682Z,99528.66
2023-01-01T09:59:46.547Z,99531.75
2023-01-01T10:02:12.931Z,99537.63
2023-01-01T10:04:54.380Z,99535.69
2023-01-01T10:07:39.586Z,99545.56
2023-01-01T10:10:22.639Z,99546.31
2023-01-01T10:12:57.168Z,99548.72
2023-01-01T10:15:29.835Z,99548.91
2023-01-01T10:17:58.865Z,99558.78
2023-01-01T10:20:28.676Z,99557.03
2023-01-01T10:23:01.102Z,99557.81
2023-01-01T10:25:29.651Z,99561.31
2023-01-01T10:28:00.868Z,99561.13
2023-01-01T10:30:28.028Z,99562.84
2023-01-01T10:32:55.539Z,99569.91
2023-01-01T10:35:31.747Z,99578.34
2023-01-01T10:37:59.464Z,99590.91
2023-01-01T10:40:27.072Z,99587.81
2023-01-01T10:43:00.585Z,99578.41
2023-01-01T10:45:34.324Z,99581.00
2023-01-01T10:48:11.597Z,99551.19
2023-01-01T10:50:43.111Z,99557.97
2023-01-01T10:53:20.796Z,99563.94
2023-01-01T10:55:51.263Z,99557.66
2023-01-01T10:58:47.160Z,99551.03
2023-01-01T11:01:34.023Z,99571.75
2023-01-01T11:04:03.438Z,99568.75
2023-01-01T11:06:48.377Z,99573.09
2023-01-01T11:09:22.884Z,99568.22
2023-01-01T11:11:55.672Z,99575.16
2023-01-01T11:14:25.518Z,99574.84
2023-01-01T11:16:52.224Z,99572.16
2023-01-01T11:19:24.129Z,99573.13
2023-01-01T11:21:50.577Z,99579.38
2023-01-01T11:24:19.110Z,99574.19
2023-01-01T11:26:50.578Z,99571.59
2023-01-01T11:29:25.717Z,99576.03
2023-01-01T11:31:52.573Z,99567.13
2023-01-01T11:34:36.789Z,99558.13
2023-01-01T11:37:22.023Z,99557.69
2023-01-01T11:39:51.186Z,99535.88
2023-01-01T11:42:22.712Z,99541.72
2023-01-01T11:44:52.082Z,99543.03
2023-01-01T11:47:27.526Z,99528.31
2023-01-01T11:49:59.454Z,99535.56
2023-01-01T11:52:34.999Z,99530.03
2023-01-01T11:55:03.419Z,99522.88
2023-01-01T11:57:29.900Z,99524.44
2023-01-01T12:00:03.419Z,99520.41
2023-01-01T12:02:36.291Z,99527.78
2023-01-01T12:05:08.951Z,99522.16
2023-01-01T12:07:37.180Z,99527.25
2023-01-01T12:10:06.325Z,99527.25
2023-01-01T12:12:38.781Z,99530.81
2023-01-01T12:15:07.128Z,99517.28
2023-01-01T12:17:34.878Z,99531.81
2023-01-01T12:20:21.350Z,99514.25
2023-01-01T12:22:48.185Z,99511.66
2023-01-01T12:25:16.330Z,99507.50
2023-01-01T12:27:45.757Z,99506.34
2023-01-01T12:30:15.878Z,99503.50
2023-01-01T12:32:47.999Z,99506.88
2023-01-01T12:35:14.306Z,99500.81
2023-01-01T12:37:59.397Z,99496.34
2023-01-01T12:40:32.222Z,99516.41
2023-01-01T12:43:19.177Z,99512.06
2023-01-01T12:46:12.347Z,99508.91
2023-01-01T12:48:53.790Z,99514.56
2023-01-01T12:51:30.144Z,99504.69
2023-01-01T12:54:02.540Z,99511.06
2023-01-01T12:56:43.232Z,99497.63
2023-01-01T12:59:18.344Z,99504.91
2023-01-01T13:01:45.349Z,99501.09
2023-01-01T13:04:14.286Z,99499.25
2023-01-01T13:06:40.878Z,99488.72
2023-01-01T13:09:11.412Z,99493.84
2023-01-01T13:11:44.540Z,99489.28
2023-01-01T13:14:11.908Z,99500.34
2023-01-01T13:16:41.341Z,99499.69
2023-01-01T13:19:24.219Z,99492.88
2023-01-01T13:21:50.617Z,99492.09
2023-01-01T13:24:22.298Z,99491.53
2023-01-01T13:26:50.193Z,99497.63
2023-01-01T13:29:19.568Z,99511.72
2023-01-01T13:31:49.174Z,99501.41
2023-01-01T13:34:30.680Z,99510.63
2023-01-01T13:37:17.235Z,99503.78
2023-01-01T13:39:55.775Z,99510.38
2023-01-01T13:42:37.577Z,99519.06
2023-01-01T13:45:04.364Z,99523.38
2023-01-01T13:47:42.831Z,99526.75
2023-01-01T13:50:20.701Z,99535.50
2023-01-01T13:52:55.223Z,99540.25
2023-01-01T13:55:27.574Z,99538.72
2023-01-01T13:58:12.789Z,99539.16
2023-01-01T14:00:55.109Z,99537.63
2023-01-01T14:03:22.300Z,99552.03
2023-01-01T14:05:57.027Z,99554.53
2023-01-01T14:08:29.840Z,99567.56
2023-01-01T14:10:56.217Z,99572.25
2023-01-01T14:13:29.769Z,99566.22
2023-01-01T14:15:58.631Z,99566.97
2023-01-01T14:18:33.755Z,99571.59
2023-01-01T14:21:00.435Z,99576.56
2023-01-01T14:23:38.937Z,99579.72
2023-01-01T14:26:25.502Z,99587.50
2023-01-01T14:28:55.775Z,99599.00
2023-01-01T14:31:24.581Z,99597.44
2023-01-01T14:33:50.974Z,99587.78
2023-01-01T14:36:20.121Z,99599.41
2023-01-01T14:38:48.045Z,99593.09
2023-01-01T14:41:18.954Z,99600.34
2023-01-01T14:43:46.471Z,99600.44
2023-01-01T14:46:17.968Z,99599.84
2023-01-01T14:48:46.218Z,99616.31
2023-01-01T14:51:15.153Z,99620.16
2023-01-01T14:53:42.406Z,99621.03
2023-01-01T14:56:09.264Z,99628.25
2023-01-01T14:58:36.410Z,99632.72
2023-01-01T15:01:16.594Z,99627.13
2023-01-01T15:03:55.023Z,99633.50
2023-01-01T15:06:23.268Z,99624.91
2023-01-01T15:08:51.090Z,99624.13
2023-01-01T15:11:17.628Z,99622.47
2023-01-01T15:13:54.407Z,99628.25
2023-01-01T15:16:21.111Z,99628.25
2023-01-01T15:18:50.603Z,99626.34
2023-01-01T15:21:18.555Z,99628.38
2023-01-01T15:23:48.861Z,99624.22
2023-01-01T15:26:24.543Z,99624.78
2023-01-01T15:28:50.971Z,99619.47
2023-01-01T15:31:17.369Z,99624.19
2023-01-01T15:33:49.897Z,99633.06
2023-01-01T15:36:16.870Z,99633.66
2023-01-01T15:38:47.583Z,99632.69
2023-01-01T15:41:24.247Z,99633.06
2023-01-01T15:43:50.694Z,99627.75
2023-01-01T15:46:17.085Z,99616.75
2023-01-01T15:48:47.846Z,99612.22
2023-01-01T15:51:16.763Z,99623.09
2023-01-01T15:53:49.417Z,99633.16
2023-01-01T15:56:16.187Z,99641.78
2023-01-01T15:58:53.947Z,99646.22
2023-01-01T16:01:22.204Z,99638.09
2023-01-01T16:03:52.121Z,99638.22
2023-01-01T16:06:19.875Z,99645.91
2023-01-01T16:08:46.225Z,99643.31
2023-01-01T16:11:13.243Z,99645.13
2023-01-01T16:13:39.631Z,99642.63
2023-01-01T16:16:17.861Z,99642.41
2023-01-01T16:18:44.335Z,99642.28
2023-01-01T16:21:10.727Z,99641.56
2023-01-01T16:23:37.141Z,99634.78
2023-01-01T16:26:03.530Z,99643.59
2023-01-01T16:28:29.930Z,99637.59
2023-01-01T16:30:57.468Z,99644.25
2023-01-01T16:33:24.005Z,99638.91
2023-01-01T16:35:50.387Z,99633.69
2023-01-01T16:38:16.802Z,99638.31
2023-01-01T16:40:43.185Z,99636.59
2023-01-01T16:43:15.287Z,99638.09
2023-01-01T16:45:41.852Z,99631.91
2023-01-01T16:48:08.289Z,99637.25
2023-01-01T16:50:34.649Z,99643.88
2023-01-01T16:53:01.093Z,99637.06
2023-01-01T16:55:27.508Z,99648.81
2023-01-01T16:58:13.744Z,99645.75
2023-01-01T17:00:40.434Z,99647.00
2023-01-01T17:03:06.906Z,99640.91
2023-01-01T17:05:42.056Z,99646.03
2023-01-01T17:08:10.426Z,99651.81
2023-01-01T17:10:36.879Z,99643.06
2023-01-01T17:13:03.456Z,99653.28
2023-01-01T17:15:29.876Z,99646.41
2023-01-01T17:17:56.990Z,99650.75
2023-01-01T17:20:23.539Z,99649.09
2023-01-01T17:22:49.931Z,99649.34
2023-01-01T17:25:16.561Z,99650.63
2023-01-01T17:27:45.379Z,99652.81
2023-01-01T17:30:12.295Z,99652.09
2023-01-01T17:32:38.726Z,99657.97
2023-01-01T17:35:05.811Z,99653.94
2023-01-01T17:37:33.394Z,99645.16
2023-01-01T17:40:00.440Z,99648.19
2023-01-01T17:42:26.930Z,99652.72
2023-01-01T17:44:53.337Z,99650.03
2023-01-01T17:47:19.760Z,99651.06
2023-01-01T17:49:46.454Z,99651.31
2023-01-01T17:52:12.944Z,99649.84
2023-01-01T17:54:39.317Z,99642.84
2023-01-01T17:57:05.808Z,99644.69
2023-01-01T17:59:32.604Z,99644.44
2023-01-01T18:01:59.886Z,99649.56
2023-01-01T18:04:27.269Z,99655.03
2023-01-01T18:06:55.984Z,99655.78
2023-01-01T18:09:25.305Z,99645.16
2023-01-01T18:11:51.765Z,99645.94
2023-01-01T18:14:22.611Z,99638.91
2023-01-01T18:16:50.834Z,99660.41
2023-01-01T18:19:17.392Z,99655.72
2023-01-01T18:21:43.836Z,99664.00
2023-01-01T18:24:14.594Z,99658.59
2023-01-01T18:26:41.386Z,99654.94
2023-01-01T18:29:08.125Z,99655.19
2023-01-01T18:31:34.784Z,99658.03
2023-01-01T18:34:03.508Z,99658.03
2023-01-01T18:36:31.770Z,99651.59
2023-01-01T18:39:17.181Z,99653.44
2023-01-01T18:42:05.146Z,99654.91
2023-01-01T18:44:32.807Z,99656.44
2023-01-01T18:47:02.324Z,99656.38
2023-01-01T18:49:28.797Z,99644.72
2023-01-01T18:51:57.033Z,99643.38
2023-01-01T18:54:24.037Z,99648.13
2023-01-01T18:56:51.641Z,99652.50
2023-01-01T18:59:20.204Z,99642.88
2023-01-01T19:01:46.972Z,99643.13
2023-01-01T19:04:13.518Z,99639.56
2023-01-01T19:06:39.905Z,99642.78
2023-01-01T19:09:06.282Z,99639.75
2023-01-01T19:11:33.282Z,99637.34
2023-01-01T19:14:02.699Z,99635.59
2023-01-01T19:16:30.503Z,99634.88
2023-01-01T19:19:00.952Z,99638.91
2023-01-01T19:21:27.312Z,99643.69
2023-01-01T19:23:54.963Z,99639.34
2023-01-01T19:26:35.502Z,99644.88
2023-01-01T19:29:24.262Z,99648.91
2023-01-01T19:31:51.810Z,99645.16
2023-01-01T19:34:18.331Z,99654.19
2023-01-01T19:36:44.793Z,99650.25
2023-01-01T19:39:11.226Z,99646.09
2023-01-01T19:41:38.244Z,99648.59
2023-01-01T19:44:09.833Z,99656.31
2023-01-01T19:46:36.621Z,99658.31
2023-01-01T19:49:03.029Z,99646.28
2023-01-01T19:51:30.284Z,99644.31
2023-01-01T19:53:56.725Z,99650.03
2023-01-01T19:56:23.499Z,99648.06
2023-01-01T19:58:49.946Z,99650.81
2023-01-01T20:01:16.818Z,99641.97
2023-01-01T20:03:58.936Z,99643.88
2023-01-01T20:06:26.372Z,99635.34
2023-01-01T20:08:53.034Z,99639.69
2023-01-01T20:11:19.608Z,99640.91
2023-01-01T20:13:46.040Z,99635.00
2023-01-01T20:16:12.491Z,99626.00
2023-01-01T20:18:38.951Z,99625.91
2023-01-01T20:21:26.620Z,99614.84
2023-01-01T20:23:53.810Z,99619.63
2023-01-01T20:26:20.885Z,99613.28
2023-01-01T20:29:05.923Z,99609.28
2023-01-01T20:31:32.304Z,99619.53
2023-01-01T20:33:58.712Z,99621.84
2023-01-01T20:36:43.762Z,99627.03
2023-01-01T20:39:10.215Z,99619.38
2023-01-01T20:41:36.564Z,99616.75
2023-01-01T20:44:03.093Z,99618.13
2023-01-01T20:46:30.051Z,99611.31
2023-01-01T20:48:57.023Z,99609.03
2023-01-01T20:51:23.393Z,99615.59
2023-01-01T20:53:49.843Z,99607.75
2023-01-01T20:56:16.269Z,99608.78
2023-01-01T20:58:48.021Z,99608.78
2023-01-01T21:01:16.618Z,99600.00
2023-01-01T21:03:43.157Z,99607.31
2023-01-01T21:06:09.494Z,99605.69
2023-01-01T21:08:35.900Z,99610.31
2023-01-01T21:11:02.281Z,99606.91
2023-01-01T21:13:28.799Z,99604.44
2023-01-01T21:15:56.650Z,99594.84
2023-01-01T21:18:23.080Z,99590.56
2023-01-01T21:20:49.548Z,99581.16
2023-01-01T21:23:17.178Z,99582.28
2023-01-01T21:25:52.011Z,99570.50
2023-01-01T21:28:19.018Z,99572.25
2023-01-01T21:30:48.949Z,99581.28
2023-01-01T21:33:19.487Z,99571.81
2023-01-01T21:35:45.877Z,99568.44
2023-01-01T21:38:18.733Z,99567.91
2023-01-01T21:40:45.077Z,99561.78
2023-01-01T21:43:24.085Z,99558.47
2023-01-01T21:45:50.953Z,99560.44
2023-01-01T21:48:18.631Z,99552.59
2023-01-01T21:50:46.492Z,99540.88
2023-01-01T21:53:23.070Z,99539.22
2023-01-01T21:55:54.224Z,99536.72
2023-01-01T21:58:43.687Z,99537.81
2023-01-01T22:01:18.251Z,99542.50
2023-01-01T22:03:45.046Z,99539.88
2023-01-01T22:06:15.813Z,99527.44
2023-01-01T22:08:44.110Z,99542.78
2023-01-01T22:11:16.661Z,99535.66
2023-01-01T22:13:43.003Z,99533.22
2023-01-01T22:16:11.723Z,99538.66
2023-01-01T22:18:39.117Z,99536.03
2023-01-01T22:21:05.574Z,99542.38
2023-01-01T22:23:34.927Z,99540.56
2023-01-01T22:26:03.796Z,99542.25
2023-01-01T22:28:43.958Z,99534.16
2023-01-01T22:31:17.363Z,99529.94
2023-01-01T22:33:46.080Z,99530.97
2023-01-01T22:36:22.308Z,99527.63
2023-01-01T22:38:48.861Z,99528.78
2023-01-01T22:41:15.316Z,99521.84
2023-01-01T22:43:42.387Z,99524.66
2023-01-01T22:46:11.826Z,99529.19
2023-01-01T22:48:38.916Z,99520.69
2023-01-01T22:51:06.841Z,99518.28
2023-01-01T22:53:33.264Z,99521.25
2023-01-01T22:55:59.575Z,99524.16
2023-01-01T22:58:25.903Z,99520.81
2023-01-01T23:00:52.227Z,99515.44
2023-01-01T23:03:18.562Z,99520.06
2023-01-01T23:05:45.026Z,99510.81
2023-01-01T23:08:11.397Z,99506.38
2023-01-01T23:10:37.753Z,99504.41
2023-01-01T23:13:24.134Z,99508.13
2023-01-01T23:16:02.904Z,99509.56
2023-01-01T23:18:31.135Z,99512.81
2023-01-01T23:20:57.873Z,99504.91
2023-01-01T23:23:24.491Z,99499.66
2023-01-01T23:25:50.973Z,99499.53
2023-01-01T23:28:17.723Z,99489.72
2023-01-01T23:30:44.235Z,99488.78
2023-01-01T23:33:10.691Z,99487.03
2023-01-01T23:35:37.131Z,99489.88
2023-01-01T23:38:03.838Z,99479.34
2023-01-01T23:40:30.159Z,99476.72
2023-01-01T23:42:56.501Z,99471.91
2023-01-01T23:45:22.823Z,99465.69
2023-01-01T23:47:49.146Z,99467.56
2023-01-01T23:50:15.601Z,99466.31
2023-01-01T23:52:42.012Z,99460.69
2023-01-01T23:55:08.650Z,99449.94
2023-01-01T23:57:34.987Z,99459.44
